sensor_id;sensor_type;location;lat;lon;timestamp;temperature;humidity
10644;DHT22;5370;50.132;8.626;2022-12-07T00:03:37;6.20;84.10
10644;DHT22;5370;50.132;8.626;2022-12-07T00:06:05;6.20;84.10
10644;DHT22;5370;50.132;8.626;2022-12-07T00:08:32;6.20;84.10
10644;DHT22;5370;50.132;8.626;2022-12-07T00:11:16;6.20;84.00
10644;DHT22;5370;50.132;8.626;2022-12-07T00:13:42;6.10;84.00
10644;DHT22;5370;50.132;8.626;2022-12-07T00:16:14;6.10;83.90
10644;DHT22;5370;50.132;8.626;2022-12-07T00:18:40;6.10;83.90
10644;DHT22;5370;50.132;8.626;2022-12-07T00:21:13;6.10;83.90
10644;DHT22;5370;50.132;8.626;2022-12-07T00:23:40;6.10;83.90
10644;DHT22;5370;50.132;8.626;2022-12-07T00:28:32;6.10;83.90
10644;DHT22;5370;50.132;8.626;2022-12-07T00:31:08;6.00;83.80
10644;DHT22;5370;50.132;8.626;2022-12-07T00:33:34;6.00;83.90
10644;DHT22;5370;50.132;8.626;2022-12-07T00:36:01;6.00;83.90
10644;DHT22;5370;50.132;8.626;2022-12-07T00:38:29;6.10;84.00
10644;DHT22;5370;50.132;8.626;2022-12-07T00:40:56;6.00;83.90
10644;DHT22;5370;50.132;8.626;2022-12-07T00:43:22;6.00;84.00
10644;DHT22;5370;50.132;8.626;2022-12-07T00:45:47;6.00;84.00
10644;DHT22;5370;50.132;8.626;2022-12-07T00:48:13;6.00;84.10
10644;DHT22;5370;50.132;8.626;2022-12-07T00:50:38;6.00;84.10
10644;DHT22;5370;50.132;8.626;2022-12-07T00:53:04;6.00;84.10
10644;DHT22;5370;50.132;8.626;2022-12-07T00:55:33;6.00;84.20
10644;DHT22;5370;50.132;8.626;2022-12-07T00:57:58;6.00;84.30
10644;DHT22;5370;50.132;8.626;2022-12-07T01:00:24;6.00;84.30
10644;DHT22;5370;50.132;8.626;2022-12-07T01:02:49;6.00;84.40
10644;DHT22;5370;50.132;8.626;2022-12-07T01:05:15;6.00;84.40
10644;DHT22;5370;50.132;8.626;2022-12-07T01:07:41;6.00;84.40
10644;DHT22;5370;50.132;8.626;2022-12-07T01:10:07;6.00;84.50
10644;DHT22;5370;50.132;8.626;2022-12-07T01:12:32;6.00;84.60
10644;DHT22;5370;50.132;8.626;2022-12-07T01:14:58;5.90;84.60
10644;DHT22;5370;50.132;8.626;2022-12-07T01:17:23;5.90;84.60
10644;DHT22;5370;50.132;8.626;2022-12-07T01:19:49;5.90;84.60
10644;DHT22;5370;50.132;8.626;2022-12-07T01:22:14;5.90;84.70
10644;DHT22;5370;50.132;8.626;2022-12-07T01:24:40;5.90;84.80
10644;DHT22;5370;50.132;8.626;2022-12-07T01:27:06;5.90;84.90
10644;DHT22;5370;50.132;8.626;2022-12-07T01:29:31;5.90;85.00
10644;DHT22;5370;50.132;8.626;2022-12-07T01:31:57;5.80;85.00
10644;DHT22;5370;50.132;8.626;2022-12-07T01:34:22;5.80;85.70
10644;DHT22;5370;50.132;8.626;2022-12-07T01:36:48;5.80;85.10
10644;DHT22;5370;50.132;8.626;2022-12-07T01:39:13;5.80;85.20
10644;DHT22;5370;50.132;8.626;2022-12-07T01:41:40;5.80;85.30
10644;DHT22;5370;50.132;8.626;2022-12-07T01:44:23;5.70;85.20
10644;DHT22;5370;50.132;8.626;2022-12-07T01:47:00;5.70;85.40
10644;DHT22;5370;50.132;8.626;2022-12-07T01:52:07;5.70;85.50
10644;DHT22;5370;50.132;8.626;2022-12-07T01:54:35;5.70;85.60
10644;DHT22;5370;50.132;8.626;2022-12-07T01:57:01;5.70;85.70
10644;DHT22;5370;50.132;8.626;2022-12-07T01:59:27;5.70;85.80
10644;DHT22;5370;50.132;8.626;2022-12-07T02:01:54;5.70;85.90
10644;DHT22;5370;50.132;8.626;2022-12-07T02:04:21;5.80;86.10
10644;DHT22;5370;50.132;8.626;2022-12-07T02:06:47;5.80;86.10
10644;DHT22;5370;50.132;8.626;2022-12-07T02:09:13;5.80;86.20
10644;DHT22;5370;50.132;8.626;2022-12-07T02:11:40;5.80;86.20
10644;DHT22;5370;50.132;8.626;2022-12-07T02:14:06;5.80;86.40
10644;DHT22;5370;50.132;8.626;2022-12-07T02:24:55;5.90;86.60
10644;DHT22;5370;50.132;8.626;2022-12-07T02:30:06;5.80;86.60
10644;DHT22;5370;50.132;8.626;2022-12-07T02:32:42;5.80;86.70
10644;DHT22;5370;50.132;8.626;2022-12-07T02:40:50;5.80;87.10
10644;DHT22;5370;50.132;8.626;2022-12-07T02:43:21;5.70;87.10
10644;DHT22;5370;50.132;8.626;2022-12-07T02:45:50;5.70;87.30
10644;DHT22;5370;50.132;8.626;2022-12-07T02:48:18;5.70;87.30
10644;DHT22;5370;50.132;8.626;2022-12-07T02:50:51;5.70;87.50
10644;DHT22;5370;50.132;8.626;2022-12-07T02:53:38;5.70;87.70
10644;DHT22;5370;50.132;8.626;2022-12-07T03:01:39;5.70;88.20
10644;DHT22;5370;50.132;8.626;2022-12-07T03:04:30;5.70;88.30
10644;DHT22;5370;50.132;8.626;2022-12-07T03:07:07;5.70;88.40
10644;DHT22;5370;50.132;8.626;2022-12-07T03:09:45;5.80;88.40
10644;DHT22;5370;50.132;8.626;2022-12-07T03:12:29;5.80;88.50
10644;DHT22;5370;50.132;8.626;2022-12-07T03:15:08;5.80;88.60
10644;DHT22;5370;50.132;8.626;2022-12-07T03:17:39;5.80;88.50
10644;DHT22;5370;50.132;8.626;2022-12-07T03:20:06;5.80;88.40
10644;DHT22;5370;50.132;8.626;2022-12-07T03:22:34;5.90;88.50
10644;DHT22;5370;50.132;8.626;2022-12-07T03:25:04;5.90;88.40
10644;DHT22;5370;50.132;8.626;2022-12-07T03:27:36;5.90;88.40
10644;DHT22;5370;50.132;8.626;2022-12-07T03:30:06;5.90;88.40
10644;DHT22;5370;50.132;8.626;2022-12-07T03:32:42;5.90;88.40
10644;DHT22;5370;50.132;8.626;2022-12-07T03:35:29;5.90;88.40
10644;DHT22;5370;50.132;8.626;2022-12-07T03:40:43;5.90;88.50
10644;DHT22;5370;50.132;8.626;2022-12-07T03:43:10;5.90;89.20
10644;DHT22;5370;50.132;8.626;2022-12-07T03:45:44;5.90;88.60
10644;DHT22;5370;50.132;8.626;2022-12-07T03:51:12;5.90;88.60
10644;DHT22;5370;50.132;8.626;2022-12-07T03:53:44;5.90;88.60
10644;DHT22;5370;50.132;8.626;2022-12-07T03:56:12;5.90;88.60
10644;DHT22;5370;50.132;8.626;2022-12-07T03:58:38;5.90;88.50
10644;DHT22;5370;50.132;8.626;2022-12-07T04:01:04;5.90;88.50
10644;DHT22;5370;50.132;8.626;2022-12-07T04:03:30;5.90;88.50
10644;DHT22;5370;50.132;8.626;2022-12-07T04:05:55;5.90;88.50
10644;DHT22;5370;50.132;8.626;2022-12-07T04:08:23;5.90;88.50
10644;DHT22;5370;50.132;8.626;2022-12-07T04:10:48;5.90;88.60
10644;DHT22;5370;50.132;8.626;2022-12-07T04:13:14;5.90;88.70
10644;DHT22;5370;50.132;8.626;2022-12-07T04:15:39;6.00;88.80
10644;DHT22;5370;50.132;8.626;2022-12-07T04:18:05;5.90;88.80
10644;DHT22;5370;50.132;8.626;2022-12-07T04:20:30;6.00;88.90
10644;DHT22;5370;50.132;8.626;2022-12-07T04:22:56;6.00;89.00
10644;DHT22;5370;50.132;8.626;2022-12-07T04:25:22;6.00;89.00
10644;DHT22;5370;50.132;8.626;2022-12-07T04:27:47;6.00;89.00
10644;DHT22;5370;50.132;8.626;2022-12-07T04:30:13;6.00;89.00
10644;DHT22;5370;50.132;8.626;2022-12-07T04:32:38;6.10;89.20
10644;DHT22;5370;50.132;8.626;2022-12-07T04:35:04;6.10;89.10
10644;DHT22;5370;50.132;8.626;2022-12-07T04:37:30;6.10;89.10
10644;DHT22;5370;50.132;8.626;2022-12-07T04:39:56;6.10;89.00
10644;DHT22;5370;50.132;8.626;2022-12-07T04:42:21;6.10;89.00
10644;DHT22;5370;50.132;8.626;2022-12-07T04:44:47;6.10;89.00
10644;DHT22;5370;50.132;8.626;2022-12-07T04:47:12;6.10;89.00
10644;DHT22;5370;50.132;8.626;2022-12-07T04:49:38;6.10;89.00
10644;DHT22;5370;50.132;8.626;2022-12-07T04:52:03;6.10;89.00
10644;DHT22;5370;50.132;8.626;2022-12-07T04:54:29;6.10;89.00
10644;DHT22;5370;50.132;8.626;2022-12-07T04:56:55;6.10;89.00
10644;DHT22;5370;50.132;8.626;2022-12-07T04:59:20;6.10;88.90
10644;DHT22;5370;50.132;8.626;2022-12-07T05:01:46;6.10;88.90
10644;DHT22;5370;50.132;8.626;2022-12-07T05:04:11;6.10;88.80
10644;DHT22;5370;50.132;8.626;2022-12-07T05:06:37;6.20;88.90
10644;DHT22;5370;50.132;8.626;2022-12-07T05:09:03;6.10;88.70
10644;DHT22;5370;50.132;8.626;2022-12-07T05:11:29;6.10;88.80
10644;DHT22;5370;50.132;8.626;2022-12-07T05:16:31;6.10;89.60
10644;DHT22;5370;50.132;8.626;2022-12-07T05:18:57;6.10;88.90
10644;DHT22;5370;50.132;8.626;2022-12-07T05:21:23;6.10;88.90
10644;DHT22;5370;50.132;8.626;2022-12-07T05:23:48;6.10;89.00
10644;DHT22;5370;50.132;8.626;2022-12-07T05:26:14;6.10;89.00
10644;DHT22;5370;50.132;8.626;2022-12-07T05:28:40;6.10;89.10
10644;DHT22;5370;50.132;8.626;2022-12-07T05:31:05;6.10;89.10
10644;DHT22;5370;50.132;8.626;2022-12-07T05:33:31;6.20;89.20
10644;DHT22;5370;50.132;8.626;2022-12-07T05:35:57;6.20;89.20
10644;DHT22;5370;50.132;8.626;2022-12-07T05:38:22;6.20;89.80
10644;DHT22;5370;50.132;8.626;2022-12-07T05:40:48;6.20;89.10
10644;DHT22;5370;50.132;8.626;2022-12-07T05:43:14;6.20;89.10
10644;DHT22;5370;50.132;8.626;2022-12-07T05:45:39;6.20;89.00
10644;DHT22;5370;50.132;8.626;2022-12-07T05:48:05;6.30;89.10
10644;DHT22;5370;50.132;8.626;2022-12-07T05:50:31;6.30;89.20
10644;DHT22;5370;50.132;8.626;2022-12-07T05:52:56;6.30;89.10
10644;DHT22;5370;50.132;8.626;2022-12-07T05:55:22;6.40;89.10
10644;DHT22;5370;50.132;8.626;2022-12-07T05:57:47;6.40;89.00
10644;DHT22;5370;50.132;8.626;2022-12-07T06:00:56;6.40;89.00
10644;DHT22;5370;50.132;8.626;2022-12-07T06:03:22;6.40;88.90
10644;DHT22;5370;50.132;8.626;2022-12-07T06:05:48;6.40;88.80
10644;DHT22;5370;50.132;8.626;2022-12-07T06:08:14;6.40;88.90
10644;DHT22;5370;50.132;8.626;2022-12-07T06:10:40;6.40;88.90
10644;DHT22;5370;50.132;8.626;2022-12-07T06:13:07;6.40;89.00
10644;DHT22;5370;50.132;8.626;2022-12-07T06:15:32;6.40;88.90
10644;DHT22;5370;50.132;8.626;2022-12-07T06:18:00;6.40;88.90
10644;DHT22;5370;50.132;8.626;2022-12-07T06:20:25;6.50;88.90
10644;DHT22;5370;50.132;8.626;2022-12-07T06:22:51;6.40;88.70
10644;DHT22;5370;50.132;8.626;2022-12-07T06:25:16;6.40;88.60
10644;DHT22;5370;50.132;8.626;2022-12-07T06:27:42;6.40;88.60
10644;DHT22;5370;50.132;8.626;2022-12-07T06:30:08;6.40;88.50
10644;DHT22;5370;50.132;8.626;2022-12-07T06:32:35;6.40;88.50
10644;DHT22;5370;50.132;8.626;2022-12-07T06:35:01;6.30;88.40
10644;DHT22;5370;50.132;8.626;2022-12-07T06:37:26;6.30;88.60
10644;DHT22;5370;50.132;8.626;2022-12-07T06:39:52;6.30;88.70
10644;DHT22;5370;50.132;8.626;2022-12-07T06:42:17;6.30;88.80
10644;DHT22;5370;50.132;8.626;2022-12-07T06:44:43;6.30;88.80
10644;DHT22;5370;50.132;8.626;2022-12-07T06:47:08;6.20;88.70
10644;DHT22;5370;50.132;8.626;2022-12-07T06:49:34;6.20;88.80
10644;DHT22;5370;50.132;8.626;2022-12-07T06:52:00;6.20;89.00
10644;DHT22;5370;50.132;8.626;2022-12-07T06:54:26;6.20;89.10
10644;DHT22;5370;50.132;8.626;2022-12-07T06:56:51;6.20;89.20
10644;DHT22;5370;50.132;8.626;2022-12-07T06:59:17;6.20;89.30
10644;DHT22;5370;50.132;8.626;2022-12-07T07:01:42;6.20;89.30
10644;DHT22;5370;50.132;8.626;2022-12-07T07:04:08;6.20;89.40
10644;DHT22;5370;50.132;8.626;2022-12-07T07:06:33;6.20;89.40
10644;DHT22;5370;50.132;8.626;2022-12-07T07:08:59;6.20;89.30
10644;DHT22;5370;50.132;8.626;2022-12-07T07:11:24;6.20;89.40
10644;DHT22;5370;50.132;8.626;2022-12-07T07:13:50;6.20;89.40
10644;DHT22;5370;50.132;8.626;2022-12-07T07:16:16;6.20;89.50
10644;DHT22;5370;50.132;8.626;2022-12-07T07:18:41;6.20;89.70
10644;DHT22;5370;50.132;8.626;2022-12-07T07:21:07;6.20;89.80
10644;DHT22;5370;50.132;8.626;2022-12-07T07:23:33;6.20;89.90
10644;DHT22;5370;50.132;8.626;2022-12-07T07:25:58;6.30;90.00
10644;DHT22;5370;50.132;8.626;2022-12-07T07:28:24;6.30;90.00
10644;DHT22;5370;50.132;8.626;2022-12-07T07:30:49;6.30;90.00
10644;DHT22;5370;50.132;8.626;2022-12-07T07:33:15;6.30;90.00
10644;DHT22;5370;50.132;8.626;2022-12-07T07:35:41;6.30;89.90
10644;DHT22;5370;50.132;8.626;2022-12-07T07:38:08;6.30;90.00
10644;DHT22;5370;50.132;8.626;2022-12-07T07:40:34;6.40;90.40
10644;DHT22;5370;50.132;8.626;2022-12-07T07:42:59;6.60;90.60
10644;DHT22;5370;50.132;8.626;2022-12-07T07:45:26;6.60;90.40
10644;DHT22;5370;50.132;8.626;2022-12-07T07:47:52;6.60;90.10
10644;DHT22;5370;50.132;8.626;2022-12-07T07:50:18;6.60;89.90
10644;DHT22;5370;50.132;8.626;2022-12-07T07:52:44;6.60;89.70
10644;DHT22;5370;50.132;8.626;2022-12-07T07:55:11;6.60;89.60
10644;DHT22;5370;50.132;8.626;2022-12-07T07:57:38;6.50;89.60
10644;DHT22;5370;50.132;8.626;2022-12-07T08:00:06;6.60;89.70
10644;DHT22;5370;50.132;8.626;2022-12-07T08:02:32;6.60;89.70
10644;DHT22;5370;50.132;8.626;2022-12-07T08:04:58;6.60;89.70
10644;DHT22;5370;50.132;8.626;2022-12-07T08:07:23;6.60;89.50
10644;DHT22;5370;50.132;8.626;2022-12-07T08:09:49;6.60;89.30
10644;DHT22;5370;50.132;8.626;2022-12-07T08:12:14;6.60;89.10
10644;DHT22;5370;50.132;8.626;2022-12-07T08:14:40;6.60;89.00
10644;DHT22;5370;50.132;8.626;2022-12-07T08:17:06;6.50;88.80
10644;DHT22;5370;50.132;8.626;2022-12-07T08:19:32;6.50;88.80
10644;DHT22;5370;50.132;8.626;2022-12-07T08:21:58;6.50;88.80
10644;DHT22;5370;50.132;8.626;2022-12-07T08:24:24;6.40;88.60
10644;DHT22;5370;50.132;8.626;2022-12-07T08:26:50;6.40;88.80
10644;DHT22;5370;50.132;8.626;2022-12-07T08:29:16;6.40;89.30
10644;DHT22;5370;50.132;8.626;2022-12-07T08:31:42;6.40;89.70
10644;DHT22;5370;50.132;8.626;2022-12-07T08:34:07;6.50;90.00
10644;DHT22;5370;50.132;8.626;2022-12-07T08:36:36;6.60;90.00
10644;DHT22;5370;50.132;8.626;2022-12-07T08:39:01;6.80;90.10
10644;DHT22;5370;50.132;8.626;2022-12-07T08:41:27;6.90;90.10
10644;DHT22;5370;50.132;8.626;2022-12-07T08:43:52;7.10;90.00
10644;DHT22;5370;50.132;8.626;2022-12-07T08:46:19;7.10;89.50
10644;DHT22;5370;50.132;8.626;2022-12-07T08:48:52;7.20;89.00
10644;DHT22;5370;50.132;8.626;2022-12-07T08:51:19;7.20;88.40
10644;DHT22;5370;50.132;8.626;2022-12-07T08:53:45;7.20;88.10
10644;DHT22;5370;50.132;8.626;2022-12-07T08:56:11;7.20;87.60
10644;DHT22;5370;50.132;8.626;2022-12-07T08:58:38;7.20;87.40
10644;DHT22;5370;50.132;8.626;2022-12-07T09:01:04;7.10;87.20
10644;DHT22;5370;50.132;8.626;2022-12-07T09:03:30;7.10;87.10
10644;DHT22;5370;50.132;8.626;2022-12-07T09:05:55;7.00;87.00
10644;DHT22;5370;50.132;8.626;2022-12-07T09:08:23;7.00;87.10
10644;DHT22;5370;50.132;8.626;2022-12-07T09:10:51;7.00;87.20
10644;DHT22;5370;50.132;8.626;2022-12-07T09:13:17;6.90;87.20
10644;DHT22;5370;50.132;8.626;2022-12-07T09:15:42;7.00;87.20
10644;DHT22;5370;50.132;8.626;2022-12-07T09:18:08;7.00;87.20
10644;DHT22;5370;50.132;8.626;2022-12-07T09:20:33;7.00;87.30
10644;DHT22;5370;50.132;8.626;2022-12-07T09:22:59;7.00;87.10
10644;DHT22;5370;50.132;8.626;2022-12-07T09:25:25;6.90;87.00
10644;DHT22;5370;50.132;8.626;2022-12-07T09:27:57;7.00;87.50
10644;DHT22;5370;50.132;8.626;2022-12-07T09:30:24;7.00;88.40
10644;DHT22;5370;50.132;8.626;2022-12-07T09:32:49;7.10;88.80
10644;DHT22;5370;50.132;8.626;2022-12-07T09:35:15;7.10;89.10
10644;DHT22;5370;50.132;8.626;2022-12-07T09:37:40;7.20;89.20
10644;DHT22;5370;50.132;8.626;2022-12-07T09:40:06;7.30;89.10
10644;DHT22;5370;50.132;8.626;2022-12-07T09:42:58;7.30;88.50
10644;DHT22;5370;50.132;8.626;2022-12-07T09:45:27;7.40;87.90
10644;DHT22;5370;50.132;8.626;2022-12-07T09:47:55;7.40;87.60
10644;DHT22;5370;50.132;8.626;2022-12-07T09:50:23;7.40;87.20
10644;DHT22;5370;50.132;8.626;2022-12-07T09:52:49;7.50;86.90
10644;DHT22;5370;50.132;8.626;2022-12-07T09:55:21;7.50;86.90
10644;DHT22;5370;50.132;8.626;2022-12-07T09:57:48;7.60;86.60
10644;DHT22;5370;50.132;8.626;2022-12-07T10:00:16;7.70;86.20
10644;DHT22;5370;50.132;8.626;2022-12-07T10:02:46;7.70;86.00
10644;DHT22;5370;50.132;8.626;2022-12-07T10:05:15;7.70;85.70
10644;DHT22;5370;50.132;8.626;2022-12-07T10:07:41;7.70;85.60
10644;DHT22;5370;50.132;8.626;2022-12-07T10:10:31;7.80;85.40
10644;DHT22;5370;50.132;8.626;2022-12-07T10:13:04;7.90;85.30
10644;DHT22;5370;50.132;8.626;2022-12-07T10:18:31;8.10;85.10
10644;DHT22;5370;50.132;8.626;2022-12-07T10:21:17;8.30;84.90
10644;DHT22;5370;50.132;8.626;2022-12-07T10:26:41;8.60;82.30
10644;DHT22;5370;50.132;8.626;2022-12-07T10:29:19;8.60;80.70
10644;DHT22;5370;50.132;8.626;2022-12-07T10:31:57;8.60;79.70
10644;DHT22;5370;50.132;8.626;2022-12-07T10:34:29;8.60;79.10
10644;DHT22;5370;50.132;8.626;2022-12-07T10:39:55;8.70;78.70
10644;DHT22;5370;50.132;8.626;2022-12-07T10:42:26;8.80;78.20
10644;DHT22;5370;50.132;8.626;2022-12-07T10:45:16;8.90;77.60
10644;DHT22;5370;50.132;8.626;2022-12-07T10:50:41;9.00;76.90
10644;DHT22;5370;50.132;8.626;2022-12-07T10:53:24;9.00;76.30
10644;DHT22;5370;50.132;8.626;2022-12-07T11:01:37;9.00;74.40
10644;DHT22;5370;50.132;8.626;2022-12-07T11:07:01;9.00;74.00
10644;DHT22;5370;50.132;8.626;2022-12-07T11:09:52;9.00;74.00
10644;DHT22;5370;50.132;8.626;2022-12-07T11:15:26;9.30;73.60
10644;DHT22;5370;50.132;8.626;2022-12-07T11:18:11;9.40;73.00
10644;DHT22;5370;50.132;8.626;2022-12-07T11:31:28;9.30;69.90
10644;DHT22;5370;50.132;8.626;2022-12-07T11:34:08;9.30;69.80
10644;DHT22;5370;50.132;8.626;2022-12-07T11:36:41;9.10;69.50
10644;DHT22;5370;50.132;8.626;2022-12-07T11:41:49;9.10;69.40
10644;DHT22;5370;50.132;8.626;2022-12-07T11:45:10;9.10;69.20
10644;DHT22;5370;50.132;8.626;2022-12-07T11:50:27;9.30;69.10
10644;DHT22;5370;50.132;8.626;2022-12-07T11:55:47;9.50;69.30
10644;DHT22;5370;50.132;8.626;2022-12-07T11:58:38;9.60;69.00
10644;DHT22;5370;50.132;8.626;2022-12-07T12:01:18;9.70;68.20
10644;DHT22;5370;50.132;8.626;2022-12-07T12:03:54;9.70;67.30
10644;DHT22;5370;50.132;8.626;2022-12-07T12:06:22;9.70;66.40
10644;DHT22;5370;50.132;8.626;2022-12-07T12:19:35;9.50;65.10
10644;DHT22;5370;50.132;8.626;2022-12-07T12:22:15;9.50;65.30
10644;DHT22;5370;50.132;8.626;2022-12-07T12:24:43;9.60;65.30
10644;DHT22;5370;50.132;8.626;2022-12-07T12:27:25;9.60;65.10
10644;DHT22;5370;50.132;8.626;2022-12-07T12:29:57;9.80;65.60
10644;DHT22;5370;50.132;8.626;2022-12-07T12:37:49;10.40;63.80
10644;DHT22;5370;50.132;8.626;2022-12-07T12:45:23;11.00;62.80
10644;DHT22;5370;50.132;8.626;2022-12-07T12:47:57;11.10;62.10
10644;DHT22;5370;50.132;8.626;2022-12-07T12:50:41;11.10;61.20
10644;DHT22;5370;50.132;8.626;2022-12-07T13:01:30;10.40;59.20
10644;DHT22;5370;50.132;8.626;2022-12-07T13:03:34;10.20;59.30
10644;DHT22;5370;50.132;8.626;2022-12-07T13:06:39;10.00;59.40
10644;DHT22;5370;50.132;8.626;2022-12-07T13:09:28;9.80;60.80
10644;DHT22;5370;50.132;8.626;2022-12-07T13:12:14;9.80;61.50
10644;DHT22;5370;50.132;8.626;2022-12-07T13:14:51;9.80;61.80
10644;DHT22;5370;50.132;8.626;2022-12-07T13:20:03;9.90;61.70
10644;DHT22;5370;50.132;8.626;2022-12-07T13:25:12;9.90;61.90
10644;DHT22;5370;50.132;8.626;2022-12-07T13:27:50;9.90;62.50
10644;DHT22;5370;50.132;8.626;2022-12-07T13:30:20;9.80;62.10
10644;DHT22;5370;50.132;8.626;2022-12-07T13:32:55;9.70;62.20
10644;DHT22;5370;50.132;8.626;2022-12-07T13:35:32;9.50;62.20
10644;DHT22;5370;50.132;8.626;2022-12-07T13:37:59;9.40;62.40
10644;DHT22;5370;50.132;8.626;2022-12-07T13:40:26;9.10;62.70
10644;DHT22;5370;50.132;8.626;2022-12-07T13:43:12;9.00;63.30
10644;DHT22;5370;50.132;8.626;2022-12-07T13:45:41;8.90;63.80
10644;DHT22;5370;50.132;8.626;2022-12-07T13:50:53;8.80;64.40
10644;DHT22;5370;50.132;8.626;2022-12-07T13:53:19;8.70;64.70
10644;DHT22;5370;50.132;8.626;2022-12-07T13:55:47;8.70;65.00
10644;DHT22;5370;50.132;8.626;2022-12-07T13:58:13;8.70;65.30
10644;DHT22;5370;50.132;8.626;2022-12-07T14:00:40;8.80;65.60
10644;DHT22;5370;50.132;8.626;2022-12-07T14:05:38;8.80;66.00
10644;DHT22;5370;50.132;8.626;2022-12-07T14:10:39;8.70;65.90
10644;DHT22;5370;50.132;8.626;2022-12-07T14:13:36;8.70;66.00
10644;DHT22;5370;50.132;8.626;2022-12-07T14:18:43;8.60;66.30
10644;DHT22;5370;50.132;8.626;2022-12-07T14:23:34;8.50;66.30
10644;DHT22;5370;50.132;8.626;2022-12-07T14:26:14;8.40;66.40
10644;DHT22;5370;50.132;8.626;2022-12-07T14:28:41;8.40;66.70
10644;DHT22;5370;50.132;8.626;2022-12-07T14:31:16;8.30;66.70
10644;DHT22;5370;50.132;8.626;2022-12-07T14:33:42;8.30;66.90
10644;DHT22;5370;50.132;8.626;2022-12-07T14:36:12;8.20;66.90
10644;DHT22;5370;50.132;8.626;2022-12-07T14:38:38;8.10;67.20
10644;DHT22;5370;50.132;8.626;2022-12-07T14:41:12;8.10;67.50
10644;DHT22;5370;50.132;8.626;2022-12-07T14:43:57;8.10;67.80
10644;DHT22;5370;50.132;8.626;2022-12-07T14:46:22;8.00;68.00
10644;DHT22;5370;50.132;8.626;2022-12-07T14:48:48;7.90;68.20
10644;DHT22;5370;50.132;8.626;2022-12-07T14:51:13;7.90;68.50
10644;DHT22;5370;50.132;8.626;2022-12-07T14:53:42;7.80;68.60
10644;DHT22;5370;50.132;8.626;2022-12-07T14:56:09;7.70;68.80
10644;DHT22;5370;50.132;8.626;2022-12-07T14:58:34;7.70;69.10
10644;DHT22;5370;50.132;8.626;2022-12-07T15:01:00;7.60;69.40
10644;DHT22;5370;50.132;8.626;2022-12-07T15:03:26;7.50;69.70
10644;DHT22;5370;50.132;8.626;2022-12-07T15:05:52;7.40;70.10
10644;DHT22;5370;50.132;8.626;2022-12-07T15:08:17;7.30;70.50
10644;DHT22;5370;50.132;8.626;2022-12-07T15:10:43;7.20;70.90
10644;DHT22;5370;50.132;8.626;2022-12-07T15:13:09;7.10;71.40
10644;DHT22;5370;50.132;8.626;2022-12-07T15:15:54;7.00;71.80
10644;DHT22;5370;50.132;8.626;2022-12-07T15:18:21;7.00;72.30
10644;DHT22;5370;50.132;8.626;2022-12-07T15:20:48;7.00;72.70
10644;DHT22;5370;50.132;8.626;2022-12-07T15:23:13;7.00;73.00
10644;DHT22;5370;50.132;8.626;2022-12-07T15:25:44;7.00;73.30
10644;DHT22;5370;50.132;8.626;2022-12-07T15:28:09;7.00;73.80
10644;DHT22;5370;50.132;8.626;2022-12-07T15:30:37;7.00;74.00
10644;DHT22;5370;50.132;8.626;2022-12-07T15:33:03;7.00;74.20
10644;DHT22;5370;50.132;8.626;2022-12-07T15:35:28;7.00;74.30
10644;DHT22;5370;50.132;8.626;2022-12-07T15:37:54;7.00;74.50
10644;DHT22;5370;50.132;8.626;2022-12-07T15:40:20;7.00;74.70
10644;DHT22;5370;50.132;8.626;2022-12-07T15:42:45;7.00;74.80
10644;DHT22;5370;50.132;8.626;2022-12-07T15:45:11;7.00;75.00
10644;DHT22;5370;50.132;8.626;2022-12-07T15:47:40;7.00;75.10
10644;DHT22;5370;50.132;8.626;2022-12-07T15:50:09;7.00;75.40
10644;DHT22;5370;50.132;8.626;2022-12-07T15:52:35;7.00;76.20
10644;DHT22;5370;50.132;8.626;2022-12-07T15:55:01;7.00;77.10
10644;DHT22;5370;50.132;8.626;2022-12-07T15:57:32;7.00;77.80
10644;DHT22;5370;50.132;8.626;2022-12-07T15:59:58;7.10;79.00
10644;DHT22;5370;50.132;8.626;2022-12-07T16:02:24;7.10;78.70
10644;DHT22;5370;50.132;8.626;2022-12-07T16:04:51;7.20;78.40
10644;DHT22;5370;50.132;8.626;2022-12-07T16:07:17;7.10;77.90
10644;DHT22;5370;50.132;8.626;2022-12-07T16:09:44;7.20;77.70
10644;DHT22;5370;50.132;8.626;2022-12-07T16:12:11;7.10;77.40
10644;DHT22;5370;50.132;8.626;2022-12-07T16:14:37;7.10;77.50
10644;DHT22;5370;50.132;8.626;2022-12-07T16:17:03;7.10;77.40
10644;DHT22;5370;50.132;8.626;2022-12-07T16:19:30;7.10;77.70
10644;DHT22;5370;50.132;8.626;2022-12-07T16:21:56;7.00;77.80
10644;DHT22;5370;50.132;8.626;2022-12-07T16:24:21;7.10;77.90
10644;DHT22;5370;50.132;8.626;2022-12-07T16:26:47;7.10;78.10
10644;DHT22;5370;50.132;8.626;2022-12-07T16:29:13;7.10;79.50
10644;DHT22;5370;50.132;8.626;2022-12-07T16:31:39;7.10;80.80
10644;DHT22;5370;50.132;8.626;2022-12-07T16:34:04;7.20;81.50
10644;DHT22;5370;50.132;8.626;2022-12-07T16:36:30;7.30;81.90
10644;DHT22;5370;50.132;8.626;2022-12-07T16:38:58;7.30;81.30
10644;DHT22;5370;50.132;8.626;2022-12-07T16:41:23;7.30;80.60
10644;DHT22;5370;50.132;8.626;2022-12-07T16:43:49;7.40;79.90
10644;DHT22;5370;50.132;8.626;2022-12-07T16:46:15;7.30;79.30
10644;DHT22;5370;50.132;8.626;2022-12-07T16:48:41;7.30;78.80
10644;DHT22;5370;50.132;8.626;2022-12-07T16:51:09;7.30;79.20
10644;DHT22;5370;50.132;8.626;2022-12-07T16:53:35;7.30;78.40
10644;DHT22;5370;50.132;8.626;2022-12-07T16:56:01;7.20;78.10
10644;DHT22;5370;50.132;8.626;2022-12-07T16:58:27;7.20;78.00
10644;DHT22;5370;50.132;8.626;2022-12-07T17:00:53;7.20;77.80
10644;DHT22;5370;50.132;8.626;2022-12-07T17:03:19;7.10;77.40
10644;DHT22;5370;50.132;8.626;2022-12-07T17:05:45;7.10;77.40
10644;DHT22;5370;50.132;8.626;2022-12-07T17:08:11;7.00;77.10
10644;DHT22;5370;50.132;8.626;2022-12-07T17:10:40;7.00;77.20
10644;DHT22;5370;50.132;8.626;2022-12-07T17:13:07;7.00;77.30
10644;DHT22;5370;50.132;8.626;2022-12-07T17:16:04;7.00;77.50
10644;DHT22;5370;50.132;8.626;2022-12-07T17:18:32;6.90;77.50
10644;DHT22;5370;50.132;8.626;2022-12-07T17:21:07;6.90;77.60
10644;DHT22;5370;50.132;8.626;2022-12-07T17:23:34;6.90;77.80
10644;DHT22;5370;50.132;8.626;2022-12-07T17:26:05;6.80;77.70
10644;DHT22;5370;50.132;8.626;2022-12-07T17:28:31;6.80;77.90
10644;DHT22;5370;50.132;8.626;2022-12-07T17:30:57;6.80;78.00
10644;DHT22;5370;50.132;8.626;2022-12-07T17:33:22;6.80;78.20
10644;DHT22;5370;50.132;8.626;2022-12-07T17:35:48;6.80;78.30
10644;DHT22;5370;50.132;8.626;2022-12-07T17:38:13;6.70;78.40
10644;DHT22;5370;50.132;8.626;2022-12-07T17:40:39;6.70;78.50
10644;DHT22;5370;50.132;8.626;2022-12-07T17:43:05;6.70;78.70
10644;DHT22;5370;50.132;8.626;2022-12-07T17:45:30;6.70;79.40
10644;DHT22;5370;50.132;8.626;2022-12-07T17:47:56;6.70;78.90
10644;DHT22;5370;50.132;8.626;2022-12-07T17:50:21;6.60;78.90
10644;DHT22;5370;50.132;8.626;2022-12-07T17:53:11;6.60;79.00
10644;DHT22;5370;50.132;8.626;2022-12-07T17:55:37;6.50;79.00
10644;DHT22;5370;50.132;8.626;2022-12-07T17:58:03;6.40;79.10
10644;DHT22;5370;50.132;8.626;2022-12-07T18:00:29;6.40;79.40
10644;DHT22;5370;50.132;8.626;2022-12-07T18:02:55;6.30;79.60
10644;DHT22;5370;50.132;8.626;2022-12-07T18:05:20;6.30;79.80
10644;DHT22;5370;50.132;8.626;2022-12-07T18:07:46;6.20;80.00
10644;DHT22;5370;50.132;8.626;2022-12-07T18:10:11;6.20;80.40
10644;DHT22;5370;50.132;8.626;2022-12-07T18:12:38;6.20;80.60
10644;DHT22;5370;50.132;8.626;2022-12-07T18:15:05;6.20;81.00
10644;DHT22;5370;50.132;8.626;2022-12-07T18:17:31;6.20;81.20
10644;DHT22;5370;50.132;8.626;2022-12-07T18:19:56;6.20;81.30